createdAt,value
2018-11-29T00:00:03.613Z,64.00
2018-11-29T00:02:30.694Z,68.60
2018-11-29T00:04:57.821Z,63.50
2018-11-29T00:07:25.283Z,77.20
2018-11-29T00:09:52.503Z,59.97
2018-11-29T00:12:19.578Z,67.07
2018-11-29T00:14:46.820Z,66.43
2018-11-29T00:17:13.929Z,70.30
2018-11-29T00:19:41.009Z,64.13
2018-11-29T00:22:08.363Z,55.27
2018-11-29T00:24:35.435Z,68.13
2018-11-29T00:27:02.612Z,67.30
2018-11-29T00:29:29.669Z,67.73
2018-11-29T00:31:56.879Z,61.17
2018-11-29T00:34:23.978Z,70.87
2018-11-29T00:36:51.135Z,73.23
2018-11-29T00:39:18.269Z,68.67
2018-11-29T00:41:45.429Z,55.33
2018-11-29T00:44:12.974Z,70.10
2018-11-29T00:46:40.281Z,70.97
2018-11-29T00:49:07.399Z,72.13
2018-11-29T00:51:34.767Z,68.13
2018-11-29T00:54:01.901Z,77.63
2018-11-29T00:56:29.220Z,73.70
2018-11-29T00:58:56.638Z,69.90
2018-11-29T01:01:23.683Z,73.37
2018-11-29T01:03:50.746Z,71.33
2018-11-29T01:06:18.268Z,73.67
2018-11-29T01:08:45.439Z,72.37
2018-11-29T01:11:12.499Z,80.60
2018-11-29T01:13:39.584Z,71.90
2018-11-29T01:16:06.683Z,72.53
2018-11-29T01:18:33.747Z,63.47
2018-11-29T01:21:00.838Z,73.90
2018-11-29T01:23:27.881Z,73.00
2018-11-29T01:25:54.966Z,78.27
2018-11-29T01:28:22.122Z,77.20
2018-11-29T01:30:49.223Z,60.90
2018-11-29T01:33:16.313Z,73.23
2018-11-29T01:35:43.735Z,68.63
2018-11-29T01:38:10.822Z,72.47
2018-11-29T01:40:37.988Z,68.33
2018-11-29T01:43:05.062Z,68.37
2018-11-29T01:45:32.136Z,67.43
2018-11-29T01:47:59.233Z,63.27
2018-11-29T01:50:26.590Z,57.00
2018-11-29T01:52:53.671Z,68.67
2018-11-29T01:55:20.745Z,63.10
2018-11-29T01:57:47.851Z,71.70
2018-11-29T02:00:15.222Z,64.27
2018-11-29T02:02:42.588Z,65.70
2018-11-29T02:05:10.143Z,64.97
2018-11-29T02:07:37.263Z,62.43
2018-11-29T02:10:11.455Z,75.07
2018-11-29T02:15:12.642Z,54.87
2018-11-29T02:17:39.774Z,66.10
2018-11-29T02:20:07.862Z,66.03
2018-11-29T02:22:34.948Z,56.90
2018-11-29T02:25:02.036Z,63.23
2018-11-29T02:27:29.203Z,59.00
2018-11-29T02:29:56.371Z,57.67
2018-11-29T02:32:23.436Z,64.13
2018-11-29T02:34:50.502Z,46.80
2018-11-29T02:37:17.900Z,65.30
2018-11-29T02:39:45.020Z,64.37
2018-11-29T02:42:12.127Z,58.47
2018-11-29T02:44:39.245Z,57.53
2018-11-29T02:47:06.322Z,68.73
2018-11-29T02:49:33.467Z,55.33
2018-11-29T02:52:00.562Z,60.23
2018-11-29T02:54:27.798Z,59.83
2018-11-29T02:56:54.878Z,58.93
2018-11-29T02:59:22.219Z,60.13
2018-11-29T03:01:49.323Z,51.60
2018-11-29T03:04:16.423Z,63.03
2018-11-29T03:06:43.551Z,55.30
2018-11-29T03:09:10.643Z,61.43
2018-11-29T03:11:37.743Z,59.40
2018-11-29T03:14:06.198Z,51.60
2018-11-29T03:16:33.264Z,49.90
2018-11-29T03:19:00.322Z,54.23
2018-11-29T03:21:27.428Z,57.23
2018-11-29T03:23:54.547Z,57.07
2018-11-29T03:26:21.644Z,64.10
2018-11-29T03:28:48.732Z,47.83
2018-11-29T03:31:15.835Z,55.87
2018-11-29T03:33:42.941Z,53.97
2018-11-29T03:36:10.245Z,62.60
2018-11-29T03:38:37.371Z,57.27
2018-11-29T03:41:04.442Z,53.33
2018-11-29T03:43:31.540Z,53.90
2018-11-29T03:45:58.628Z,56.60
2018-11-29T03:48:25.693Z,56.80
2018-11-29T03:50:52.815Z,56.67
2018-11-29T03:53:19.991Z,53.73
2018-11-29T03:55:47.054Z,53.77
2018-11-29T03:58:14.122Z,52.90
2018-11-29T04:00:41.215Z,56.50
2018-11-29T04:03:08.311Z,52.00
2018-11-29T04:05:35.391Z,37.10
2018-11-29T04:08:02.431Z,48.30
2018-11-29T04:10:29.560Z,53.77
2018-11-29T04:12:56.662Z,50.00
2018-11-29T04:15:23.772Z,48.67
2018-11-29T04:17:50.871Z,61.50
2018-11-29T04:20:18.073Z,51.37
2018-11-29T04:22:45.181Z,52.30
2018-11-29T04:25:12.777Z,54.27
2018-11-29T04:27:39.859Z,50.60
2018-11-29T04:30:07.996Z,49.90
2018-11-29T04:32:35.052Z,49.43
2018-11-29T04:35:02.179Z,51.20
2018-11-29T04:37:29.244Z,51.70
2018-11-29T04:39:56.313Z,52.27
2018-11-29T04:42:23.459Z,46.77
2018-11-29T04:44:50.506Z,47.27
2018-11-29T04:47:17.582Z,47.57
2018-11-29T04:49:44.741Z,52.67
2018-11-29T04:52:11.795Z,42.60
2018-11-29T04:54:38.850Z,55.40
2018-11-29T04:57:05.908Z,44.93
2018-11-29T04:59:33.001Z,52.90
2018-11-29T05:02:00.091Z,45.80
2018-11-29T05:04:27.172Z,47.13
2018-11-29T05:06:54.241Z,45.57
2018-11-29T05:09:21.324Z,52.00
2018-11-29T05:11:48.692Z,53.30
2018-11-29T05:14:15.782Z,47.10
2018-11-29T05:16:42.875Z,49.93
2018-11-29T05:19:09.993Z,40.77
2018-11-29T05:21:37.162Z,52.83
2018-11-29T05:24:04.480Z,53.30
2018-11-29T05:26:31.893Z,46.97
2018-11-29T05:28:58.955Z,50.57
2018-11-29T05:31:26.039Z,45.13
2018-11-29T05:33:53.138Z,36.53
2018-11-29T05:36:20.219Z,49.93
2018-11-29T05:38:47.307Z,56.23
2018-11-29T05:41:14.645Z,46.20
2018-11-29T05:43:41.720Z,44.57
2018-11-29T05:46:08.848Z,43.20
2018-11-29T05:48:35.921Z,46.93
2018-11-29T05:51:03.005Z,38.80
2018-11-29T05:53:30.157Z,39.57
2018-11-29T05:55:57.273Z,46.00
2018-11-29T05:58:24.326Z,35.07
2018-11-29T06:00:51.369Z,42.60
2018-11-29T06:03:18.666Z,45.23
2018-11-29T06:05:45.739Z,45.43
2018-11-29T06:08:12.818Z,48.20
2018-11-29T06:10:39.927Z,44.40
2018-11-29T06:13:07.055Z,31.30
2018-11-29T06:15:34.162Z,36.37
2018-11-29T06:18:01.262Z,38.20
2018-11-29T06:20:28.335Z,42.57
2018-11-29T06:22:55.466Z,41.10
2018-11-29T06:25:22.589Z,42.97
2018-11-29T06:27:49.797Z,32.87
2018-11-29T06:30:17.498Z,37.03
2018-11-29T06:32:44.626Z,44.57
2018-11-29T06:35:11.802Z,40.87
2018-11-29T06:37:38.870Z,41.50
2018-11-29T06:40:07.359Z,46.77
2018-11-29T06:42:34.442Z,34.23
2018-11-29T06:45:01.555Z,39.00
2018-11-29T06:47:28.606Z,38.43
2018-11-29T06:49:55.687Z,45.73
2018-11-29T06:52:22.764Z,47.10
2018-11-29T06:54:49.842Z,42.07
2018-11-29T06:57:16.915Z,39.60
2018-11-29T06:59:44.012Z,29.53
2018-11-29T07:02:11.116Z,36.23
2018-11-29T07:04:38.158Z,45.80
2018-11-29T07:07:05.218Z,40.67
2018-11-29T07:09:32.310Z,34.93
2018-11-29T07:11:59.362Z,39.53
2018-11-29T07:14:26.434Z,42.17
2018-11-29T07:16:53.860Z,41.67
2018-11-29T07:19:20.955Z,37.73
2018-11-29T07:21:48.995Z,31.87
2018-11-29T07:24:16.123Z,38.70
2018-11-29T07:26:43.199Z,41.03
2018-11-29T07:29:10.283Z,31.57
2018-11-29T07:31:37.407Z,39.13
2018-11-29T07:34:04.718Z,37.67
2018-11-29T07:36:31.779Z,28.80
2018-11-29T07:38:59.158Z,43.07
2018-11-29T07:41:26.272Z,34.27
2018-11-29T07:49:24.135Z,34.53
2018-11-29T07:51:51.212Z,29.23
2018-11-29T07:54:18.483Z,43.40
2018-11-29T07:56:45.584Z,44.53
2018-11-29T07:59:12.634Z,32.23
2018-11-29T08:01:39.745Z,36.40
2018-11-29T08:04:06.934Z,45.00
2018-11-29T08:06:34.014Z,34.90
2018-11-29T08:09:01.062Z,38.07
2018-11-29T08:11:28.193Z,34.83
2018-11-29T08:13:55.266Z,43.70
2018-11-29T08:16:22.326Z,37.60
2018-11-29T08:18:49.435Z,41.50
2018-11-29T08:21:16.551Z,50.57
2018-11-29T08:23:43.649Z,37.37
2018-11-29T08:26:11.071Z,37.70
2018-11-29T08:28:38.223Z,36.40
2018-11-29T08:31:05.341Z,46.40
2018-11-29T08:33:32.438Z,44.83
2018-11-29T08:35:59.485Z,37.63
2018-11-29T08:38:26.570Z,29.60
2018-11-29T08:40:53.950Z,36.13
2018-11-29T08:43:21.054Z,46.70
2018-11-29T08:45:48.118Z,40.53
2018-11-29T08:48:15.220Z,34.10
2018-11-29T08:50:42.327Z,36.87
2018-11-29T08:53:09.386Z,41.47
2018-11-29T08:55:36.779Z,35.63
2018-11-29T08:58:04.185Z,35.90
2018-11-29T09:00:31.300Z,28.13
2018-11-29T09:09:01.543Z,32.57
2018-11-29T09:11:28.649Z,42.23
2018-11-29T09:13:55.811Z,45.07
2018-11-29T09:16:22.976Z,33.13
2018-11-29T09:18:50.061Z,32.83
2018-11-29T09:21:17.164Z,37.03
2018-11-29T09:23:44.279Z,40.43
2018-11-29T09:26:11.451Z,34.30
2018-11-29T09:28:38.627Z,34.80
2018-11-29T09:31:05.999Z,36.93
2018-11-29T09:33:33.106Z,32.03
2018-11-29T09:36:00.221Z,35.73
2018-11-29T09:38:27.325Z,34.90
2018-11-29T09:40:54.480Z,40.10
2018-11-29T09:43:21.576Z,35.77
2018-11-29T09:45:48.655Z,35.77
2018-11-29T09:48:15.782Z,49.00
2018-11-29T09:50:42.906Z,33.60
2018-11-29T09:53:10.019Z,42.57
2018-11-29T09:55:37.147Z,42.47
2018-11-29T09:58:11.003Z,38.00
2018-11-29T10:00:38.103Z,41.43
2018-11-29T10:03:06.854Z,33.47
2018-11-29T10:05:34.319Z,45.87
2018-11-29T10:08:01.416Z,41.83
2018-11-29T10:10:28.498Z,32.57
2018-11-29T10:12:55.587Z,42.07
2018-11-29T10:15:22.734Z,35.87
2018-11-29T10:17:49.836Z,38.83
2018-11-29T10:20:17.006Z,39.73
2018-11-29T10:22:44.112Z,54.07
2018-11-29T10:25:11.764Z,38.30
2018-11-29T10:27:39.084Z,40.00
2018-11-29T10:30:14.205Z,28.93
2018-11-29T10:32:41.311Z,39.33
2018-11-29T10:35:08.406Z,31.70
2018-11-29T10:37:35.523Z,40.80
2018-11-29T10:40:04.451Z,38.23
2018-11-29T10:42:31.529Z,37.80
2018-11-29T10:44:58.723Z,41.93
2018-11-29T10:47:25.831Z,29.17
2018-11-29T10:49:52.933Z,33.63
2018-11-29T10:52:20.051Z,41.30
2018-11-29T10:54:47.183Z,35.60
2018-11-29T10:57:14.272Z,31.10
2018-11-29T10:59:41.371Z,36.67
2018-11-29T11:02:12.754Z,34.67
2018-11-29T11:04:39.828Z,37.40
2018-11-29T11:07:06.909Z,36.17
2018-11-29T11:09:34.011Z,34.07
2018-11-29T11:12:01.127Z,38.13
2018-11-29T11:14:28.181Z,36.30
2018-11-29T11:16:55.545Z,32.83
2018-11-29T11:19:22.735Z,33.33
2018-11-29T11:21:49.790Z,34.80
2018-11-29T11:24:16.925Z,38.57
2018-11-29T11:26:44.006Z,29.63
2018-11-29T11:29:11.069Z,33.50
2018-11-29T11:31:38.571Z,43.80
2018-11-29T11:34:06.267Z,35.17
2018-11-29T11:36:33.366Z,42.93
2018-11-29T11:39:00.679Z,49.37
2018-11-29T11:41:27.765Z,33.13
2018-11-29T11:43:54.842Z,37.23
2018-11-29T11:46:21.921Z,33.37
2018-11-29T11:48:49.020Z,30.50
2018-11-29T11:51:16.124Z,44.63
2018-11-29T11:53:43.628Z,36.07
2018-11-29T11:56:10.775Z,35.80
2018-11-29T11:58:37.920Z,34.07
2018-11-29T12:01:05.210Z,37.60
2018-11-29T12:03:32.304Z,37.07
2018-11-29T12:05:59.494Z,35.43
2018-11-29T12:08:26.875Z,33.33
2018-11-29T12:10:53.958Z,29.60
2018-11-29T12:13:22.796Z,38.90
2018-11-29T12:15:50.163Z,41.37
2018-11-29T12:18:17.540Z,39.93
2018-11-29T12:20:44.516Z,39.17
2018-11-29T12:23:11.627Z,39.03
2018-11-29T12:25:38.772Z,38.00
2018-11-29T12:28:05.866Z,28.17
2018-11-29T12:30:36.007Z,42.67
2018-11-29T12:33:03.663Z,42.00
2018-11-29T12:35:30.843Z,35.53
2018-11-29T12:37:57.999Z,35.67
2018-11-29T12:40:25.212Z,38.20
2018-11-29T12:42:52.346Z,34.70
2018-11-29T12:45:19.903Z,29.93
2018-11-29T12:47:46.958Z,36.70
2018-11-29T12:50:14.523Z,28.07
2018-11-29T12:52:42.128Z,35.07
2018-11-29T12:55:09.518Z,26.77
2018-11-29T12:57:36.594Z,45.27
2018-11-29T13:00:04.922Z,32.77
2018-11-29T13:02:32.001Z,30.80
2018-11-29T13:04:59.087Z,33.03
2018-11-29T13:07:26.255Z,48.63
2018-11-29T13:09:53.343Z,37.23
2018-11-29T13:12:20.552Z,28.73
2018-11-29T13:14:51.387Z,30.20
2018-11-29T13:17:18.499Z,36.70
2018-11-29T13:19:45.629Z,36.60
2018-11-29T13:22:12.813Z,27.37
2018-11-29T13:24:39.963Z,30.60
2018-11-29T13:27:07.095Z,48.10
2018-11-29T13:29:34.308Z,36.33
2018-11-29T13:32:01.391Z,33.27
2018-11-29T13:34:28.531Z,33.40
2018-11-29T13:36:55.611Z,32.77
2018-11-29T13:39:22.746Z,34.50
2018-11-29T13:41:49.818Z,27.53
2018-11-29T13:44:17.197Z,28.53
2018-11-29T13:46:44.341Z,35.07
2018-11-29T13:49:18.388Z,31.30
2018-11-29T13:51:45.650Z,29.10
2018-11-29T13:54:12.735Z,30.77
2018-11-29T13:56:41.248Z,34.00
2018-11-29T13:59:08.370Z,30.23
2018-11-29T14:01:35.445Z,27.87
2018-11-29T14:04:05.575Z,27.80
2018-11-29T14:06:32.684Z,29.20
2018-11-29T14:08:59.775Z,31.60
2018-11-29T14:11:27.086Z,25.20
2018-11-29T14:13:54.191Z,28.10
2018-11-29T14:16:21.270Z,27.23
2018-11-29T14:18:48.992Z,29.77
2018-11-29T14:21:16.179Z,41.00
2018-11-29T14:23:43.271Z,32.10
2018-11-29T14:26:10.351Z,27.57
2018-11-29T14:28:37.518Z,31.80
2018-11-29T14:31:04.627Z,36.23
2018-11-29T14:33:32.054Z,33.90
2018-11-29T14:35:59.106Z,32.53
2018-11-29T14:38:26.198Z,30.27
2018-11-29T14:40:53.706Z,32.30
2018-11-29T14:43:20.773Z,34.10
2018-11-29T14:45:47.858Z,33.13
2018-11-29T14:48:14.988Z,31.70
2018-11-29T14:50:42.830Z,29.27
2018-11-29T14:53:09.881Z,30.27
2018-11-29T14:55:37.595Z,27.43
2018-11-29T14:58:04.962Z,30.33
2018-11-29T15:00:31.962Z,37.57
2018-11-29T15:02:59.906Z,32.10
2018-11-29T15:05:30.238Z,29.20
2018-11-29T15:07:57.309Z,34.70
2018-11-29T15:10:24.500Z,29.20
2018-11-29T15:12:51.604Z,22.53
2018-11-29T15:15:18.748Z,29.97
2018-11-29T15:17:46.375Z,30.53
2018-11-29T15:20:17.272Z,31.93
2018-11-29T15:22:44.426Z,26.10
2018-11-29T15:25:11.829Z,29.23
2018-11-29T15:27:38.995Z,24.10
2018-11-29T15:30:22.209Z,26.63
2018-11-29T15:32:49.382Z,30.53
2018-11-29T15:35:16.502Z,27.80
2018-11-29T15:37:43.892Z,31.27
2018-11-29T15:40:11.572Z,35.10
2018-11-29T15:42:38.674Z,34.50
2018-11-29T15:45:07.748Z,31.50
2018-11-29T15:47:34.886Z,33.63
2018-11-29T15:50:01.963Z,27.40
2018-11-29T15:52:29.115Z,26.47
2018-11-29T15:54:56.224Z,33.53
2018-11-29T15:57:23.333Z,37.70
2018-11-29T15:59:50.514Z,30.07
2018-11-29T16:02:17.591Z,27.40
2018-11-29T16:04:44.743Z,29.07
2018-11-29T16:07:11.845Z,30.47
2018-11-29T16:09:38.894Z,29.60
2018-11-29T16:12:05.989Z,28.40
2018-11-29T16:14:33.202Z,32.50
2018-11-29T16:17:00.283Z,28.13
2018-11-29T16:22:01.635Z,26.90
2018-11-29T16:24:28.758Z,28.27
2018-11-29T16:26:55.848Z,30.33
2018-11-29T16:29:23.002Z,30.67
2018-11-29T16:31:50.074Z,33.00
2018-11-29T16:34:17.163Z,30.40
2018-11-29T16:36:44.269Z,32.00
2018-11-29T16:39:11.414Z,29.73
2018-11-29T16:41:38.572Z,28.40
2018-11-29T16:44:05.705Z,30.37
2018-11-29T16:46:32.789Z,33.83
2018-11-29T16:49:02.770Z,33.00
2018-11-29T16:51:27.142Z,31.40
2018-11-29T16:53:54.166Z,33.90
2018-11-29T16:56:21.276Z,28.73
2018-11-29T16:58:48.673Z,30.50
2018-11-29T17:01:15.754Z,35.40
2018-11-29T17:03:42.810Z,36.90
2018-11-29T17:06:10.211Z,31.90
2018-11-29T17:08:37.278Z,30.30
2018-11-29T17:11:04.415Z,32.97
2018-11-29T17:13:31.623Z,24.70
2018-11-29T17:15:58.779Z,30.40
2018-11-29T17:18:25.901Z,30.20
2018-11-29T17:20:53.035Z,31.40
2018-11-29T17:23:20.143Z,31.53
2018-11-29T17:25:47.335Z,32.70
2018-11-29T17:28:14.885Z,28.03
2018-11-29T17:30:41.962Z,28.00
2018-11-29T17:33:09.026Z,32.23
2018-11-29T17:35:36.487Z,30.73
2018-11-29T17:38:03.659Z,29.53
2018-11-29T17:40:30.969Z,25.30
2018-11-29T17:42:58.133Z,26.00
2018-11-29T17:45:25.755Z,28.10
2018-11-29T17:47:53.520Z,27.33
2018-11-29T17:50:22.478Z,22.10
2018-11-29T17:52:49.559Z,27.00
2018-11-29T17:55:16.617Z,24.77
2018-11-29T17:57:43.693Z,23.23
2018-11-29T18:00:12.548Z,18.47
2018-11-29T18:02:39.654Z,28.87
2018-11-29T18:05:07.153Z,36.60
2018-11-29T18:07:34.275Z,32.40
2018-11-29T18:10:01.352Z,23.00
2018-11-29T18:12:28.693Z,24.03
2018-11-29T18:14:55.839Z,25.77
2018-11-29T18:17:22.920Z,29.77
2018-11-29T18:19:50.203Z,25.07
2018-11-29T18:22:17.327Z,23.53
2018-11-29T18:24:44.414Z,21.80
2018-11-29T18:27:11.881Z,18.17
2018-11-29T18:29:39.002Z,29.10
2018-11-29T18:32:06.190Z,22.53
2018-11-29T18:34:33.456Z,20.00
2018-11-29T18:37:00.627Z,24.23
2018-11-29T18:39:28.090Z,25.80
2018-11-29T18:41:55.402Z,24.60
2018-11-29T18:44:22.703Z,19.80
2018-11-29T18:46:50.039Z,26.67
2018-11-29T18:49:17.620Z,23.63
2018-11-29T18:51:44.918Z,20.53
2018-11-29T18:54:12.357Z,16.27
2018-11-29T18:56:40.136Z,25.87
2018-11-29T18:59:07.332Z,25.60
2018-11-29T19:01:34.503Z,21.00
2018-11-29T19:04:02.244Z,21.20
2018-11-29T19:06:29.424Z,17.57
2018-11-29T19:08:56.799Z,22.67
2018-11-29T19:11:24.518Z,21.40
2018-11-29T19:13:51.775Z,19.33
2018-11-29T19:16:18.869Z,17.67
2018-11-29T19:18:46.032Z,21.00
2018-11-29T19:21:13.282Z,21.50
2018-11-29T19:23:40.503Z,23.00
2018-11-29T19:26:08.105Z,19.50
2018-11-29T19:28:35.240Z,19.90
2018-11-29T19:31:02.380Z,17.60
2018-11-29T19:33:29.640Z,23.53
2018-11-29T19:35:56.775Z,21.47
2018-11-29T19:38:23.856Z,18.77
2018-11-29T19:40:51.357Z,25.97
2018-11-29T19:43:18.434Z,18.20
2018-11-29T19:45:45.596Z,22.47
2018-11-29T19:48:12.779Z,17.33
2018-11-29T19:50:39.911Z,17.63
2018-11-29T19:53:09.218Z,15.60
2018-11-29T19:55:36.688Z,19.60
2018-11-29T19:58:03.802Z,19.53
2018-11-29T20:00:31.010Z,14.53
2018-11-29T20:02:58.397Z,17.83
2018-11-29T20:05:25.473Z,14.03
2018-11-29T20:07:52.547Z,18.83
2018-11-29T20:10:19.698Z,15.73
2018-11-29T20:12:47.345Z,19.23
2018-11-29T20:15:18.798Z,20.70
2018-11-29T20:17:46.018Z,22.83
2018-11-29T20:20:13.123Z,20.27
2018-11-29T20:22:40.385Z,20.87
2018-11-29T20:25:09.116Z,17.80
2018-11-29T20:27:36.340Z,12.67
2018-11-29T20:30:04.297Z,15.17
2018-11-29T20:32:31.428Z,24.27
2018-11-29T20:34:58.505Z,16.43
2018-11-29T20:37:25.595Z,13.70
2018-11-29T20:39:52.943Z,42.27
2018-11-29T20:42:20.089Z,17.57
2018-11-29T20:44:47.177Z,21.43
2018-11-29T20:47:23.259Z,26.60
2018-11-29T20:49:50.451Z,16.50
2018-11-29T20:52:17.579Z,21.03
2018-11-29T20:54:44.684Z,19.90
2018-11-29T20:57:11.803Z,15.37
2018-11-29T20:59:38.959Z,18.73
2018-11-29T21:02:06.462Z,26.13
2018-11-29T21:04:33.552Z,18.87
2018-11-29T21:07:00.738Z,14.50
2018-11-29T21:09:27.862Z,25.17
2018-11-29T21:11:54.970Z,14.33
2018-11-29T21:14:22.055Z,18.33
2018-11-29T21:16:49.575Z,21.93
2018-11-29T21:19:16.663Z,21.63
2018-11-29T21:21:43.731Z,21.77
2018-11-29T21:24:11.108Z,26.80
2018-11-29T21:26:38.221Z,21.63
2018-11-29T21:29:05.265Z,21.43
2018-11-29T21:31:32.765Z,20.23
2018-11-29T21:33:59.838Z,18.83
2018-11-29T21:36:26.942Z,16.40
2018-11-29T21:38:54.036Z,18.20
2018-11-29T21:41:21.098Z,21.80
2018-11-29T21:43:48.178Z,24.67
2018-11-29T21:46:15.294Z,22.20
2018-11-29T21:48:42.482Z,16.70
2018-11-29T21:51:09.571Z,26.80
2018-11-29T21:53:37.015Z,19.97
2018-11-29T21:56:04.126Z,25.47
2018-11-29T21:58:31.178Z,24.73
2018-11-29T22:00:58.446Z,24.70
2018-11-29T22:03:25.571Z,25.70
2018-11-29T22:05:52.683Z,16.97
2018-11-29T22:08:19.871Z,20.10
2018-11-29T22:10:46.995Z,20.77
2018-11-29T22:13:14.162Z,20.50
2018-11-29T22:15:41.310Z,31.60
2018-11-29T22:18:13.112Z,28.60
2018-11-29T22:20:40.435Z,22.10
2018-11-29T22:23:07.923Z,22.00
2018-11-29T22:25:35.030Z,13.70
2018-11-29T22:28:02.301Z,23.43
2018-11-29T22:30:30.042Z,20.03
2018-11-29T22:32:57.257Z,32.67
2018-11-29T22:35:24.377Z,23.43
2018-11-29T22:37:51.871Z,22.20
2018-11-29T22:40:19.647Z,19.83
2018-11-29T22:42:47.034Z,16.87
2018-11-29T22:45:14.266Z,18.67
2018-11-29T22:47:41.283Z,19.50
2018-11-29T22:50:08.540Z,22.77
2018-11-29T22:52:36.114Z,22.00
2018-11-29T22:55:03.932Z,19.50
2018-11-29T22:57:30.838Z,22.03
2018-11-29T22:59:57.962Z,18.53
2018-11-29T23:02:25.163Z,23.60
2018-11-29T23:04:52.908Z,20.90
2018-11-29T23:07:20.146Z,23.37
2018-11-29T23:09:47.223Z,21.87
2018-11-29T23:12:14.416Z,19.43
2018-11-29T23:14:42.623Z,27.73
2018-11-29T23:17:09.711Z,17.60
2018-11-29T23:19:36.826Z,17.17
2018-11-29T23:22:04.214Z,26.43
2018-11-29T23:24:31.367Z,20.83
2018-11-29T23:26:58.693Z,17.40
2018-11-29T23:29:25.966Z,20.03
2018-11-29T23:31:53.135Z,25.73
2018-11-29T23:34:20.271Z,30.80
2018-11-29T23:36:47.659Z,18.33
2018-11-29T23:39:14.975Z,18.30
2018-11-29T23:41:42.292Z,21.93
2018-11-29T23:44:09.727Z,31.30
2018-11-29T23:46:36.818Z,22.40
2018-11-29T23:49:04.051Z,26.07
2018-11-29T23:51:31.548Z,19.13
2018-11-29T23:53:58.755Z,24.83
2018-11-29T23:56:25.807Z,19.87
2018-11-29T23:58:53.051Z,22.30
